sensor_id;sensor_type;location;lat;lon;timestamp;noise_LAeq;noise_LA_min;noise_LA_max;noise_LA01;noise_LA95
71016;Laerm;60940;52.046;5.340;2022-09-27T00:00:01;34.61;32.27;43.41;;
71016;Laerm;60940;52.046;5.340;2022-09-27T00:00:11;34.68;31.62;50.74;;
71016;Laerm;60940;52.046;5.340;2022-09-27T00:00:22;33.80;30.97;40.67;;
71016;Laerm;60940;52.046;5.340;2022-09-27T00:00:32;33.64;30.41;47.00;;
71016;Laerm;60940;52.046;5.340;2022-09-27T00:00:42;33.93;30.66;49.20;;
71016;Laerm;60940;52.046;5.340;2022-09-27T00:00:56;34.33;30.96;46.78;;
71016;Laerm;60940;52.046;5.340;2022-09-27T00:01:10;35.38;31.11;51.08;;
71016;Laerm;60940;52.046;5.340;2022-09-27T00:01:20;35.38;31.43;52.37;;
71016;Laerm;60940;52.046;5.340;2022-09-27T00:01:30;33.59;31.32;43.68;;
71016;Laerm;60940;52.046;5.340;2022-09-27T00:01:41;34.42;30.35;49.92;;
71016;Laerm;60940;52.046;5.340;2022-09-27T00:01:53;34.33;30.83;48.41;;
71016;Laerm;60940;52.046;5.340;2022-09-27T00:02:03;34.21;30.72;47.22;;
71016;Laerm;60940;52.046;5.340;2022-09-27T00:02:13;33.34;30.50;41.41;;
71016;Laerm;60940;52.046;5.340;2022-09-27T00:02:23;34.62;30.55;49.76;;
71016;Laerm;60940;52.046;5.340;2022-09-27T00:02:33;34.22;30.74;50.68;;
71016;Laerm;60940;52.046;5.340;2022-09-27T00:02:44;33.08;30.21;45.25;;
71016;Laerm;60940;52.046;5.340;2022-09-27T00:02:54;34.67;30.75;49.90;;
71016;Laerm;60940;52.046;5.340;2022-09-27T00:03:04;33.41;30.75;44.79;;
71016;Laerm;60940;52.046;5.340;2022-09-27T00:03:14;33.28;30.52;42.89;;
71016;Laerm;60940;52.046;5.340;2022-09-27T00:03:24;33.25;29.80;44.63;;
71016;Laerm;60940;52.046;5.340;2022-09-27T00:03:35;32.96;30.22;45.14;;
71016;Laerm;60940;52.046;5.340;2022-09-27T00:03:45;33.93;30.39;44.86;;
71016;Laerm;60940;52.046;5.340;2022-09-27T00:03:55;34.40;30.05;50.09;;
71016;Laerm;60940;52.046;5.340;2022-09-27T00:04:06;32.96;30.39;44.21;;
71016;Laerm;60940;52.046;5.340;2022-09-27T00:04:16;34.21;30.10;52.76;;
71016;Laerm;60940;52.046;5.340;2022-09-27T00:04:26;34.15;30.07;48.50;;
71016;Laerm;60940;52.046;5.340;2022-09-27T00:04:36;33.57;30.17;48.54;;
71016;Laerm;60940;52.046;5.340;2022-09-27T00:04:46;34.27;30.42;52.01;;
71016;Laerm;60940;52.046;5.340;2022-09-27T00:04:57;34.13;30.21;46.82;;
71016;Laerm;60940;52.046;5.340;2022-09-27T00:05:07;34.28;30.63;48.23;;
71016;Laerm;60940;52.046;5.340;2022-09-27T00:05:18;35.83;31.96;50.72;;
71016;Laerm;60940;52.046;5.340;2022-09-27T00:05:28;34.40;31.46;45.06;;
71016;Laerm;60940;52.046;5.340;2022-09-27T00:05:39;34.10;31.79;44.66;;
71016;Laerm;60940;52.046;5.340;2022-09-27T00:05:58;35.09;32.68;42.13;;
71016;Laerm;60940;52.046;5.340;2022-09-27T00:06:13;38.69;33.02;60.05;;
71016;Laerm;60940;52.046;5.340;2022-09-27T00:06:26;35.88;33.01;50.26;;
71016;Laerm;60940;52.046;5.340;2022-09-27T00:06:36;35.28;31.54;46.23;;
71016;Laerm;60940;52.046;5.340;2022-09-27T00:06:46;33.87;31.36;44.31;;
71016;Laerm;60940;52.046;5.340;2022-09-27T00:06:57;34.19;31.17;44.07;;
71016;Laerm;60940;52.046;5.340;2022-09-27T00:07:07;34.28;30.54;46.18;;
71016;Laerm;60940;52.046;5.340;2022-09-27T00:07:19;33.69;30.67;42.76;;
71016;Laerm;60940;52.046;5.340;2022-09-27T00:07:29;33.14;30.27;45.20;;
71016;Laerm;60940;52.046;5.340;2022-09-27T00:07:39;34.21;29.83;48.91;;
71016;Laerm;60940;52.046;5.340;2022-09-27T00:07:49;33.41;30.41;47.59;;
71016;Laerm;60940;52.046;5.340;2022-09-27T00:08:00;32.86;30.51;41.96;;
71016;Laerm;60940;52.046;5.340;2022-09-27T00:08:10;33.51;30.46;45.40;;
71016;Laerm;60940;52.046;5.340;2022-09-27T00:08:20;35.14;30.41;52.02;;
71016;Laerm;60940;52.046;5.340;2022-09-27T00:08:31;32.39;29.96;39.18;;
71016;Laerm;60940;52.046;5.340;2022-09-27T00:08:41;34.01;30.42;45.96;;
71016;Laerm;60940;52.046;5.340;2022-09-27T00:08:52;33.41;30.21;46.07;;
71016;Laerm;60940;52.046;5.340;2022-09-27T00:09:02;33.06;30.24;44.81;;
71016;Laerm;60940;52.046;5.340;2022-09-27T00:09:12;33.54;30.43;44.76;;
71016;Laerm;60940;52.046;5.340;2022-09-27T00:09:23;35.00;30.30;55.20;;
71016;Laerm;60940;52.046;5.340;2022-09-27T00:09:33;34.70;30.11;52.34;;
71016;Laerm;60940;52.046;5.340;2022-09-27T00:09:43;33.26;30.75;44.06;;
71016;Laerm;60940;52.046;5.340;2022-09-27T00:09:53;33.63;30.58;46.99;;
71016;Laerm;60940;52.046;5.340;2022-09-27T00:10:04;34.10;30.48;46.89;;
71016;Laerm;60940;52.046;5.340;2022-09-27T00:10:14;35.53;30.73;50.53;;
71016;Laerm;60940;52.046;5.340;2022-09-27T00:10:25;33.97;30.76;50.74;;
71016;Laerm;60940;52.046;5.340;2022-09-27T00:10:35;34.51;30.02;51.99;;
71016;Laerm;60940;52.046;5.340;2022-09-27T00:10:45;33.74;30.15;41.86;;
71016;Laerm;60940;52.046;5.340;2022-09-27T00:10:59;33.17;30.48;46.40;;
71016;Laerm;60940;52.046;5.340;2022-09-27T00:11:11;34.47;30.45;52.84;;
71016;Laerm;60940;52.046;5.340;2022-09-27T00:11:27;33.08;30.23;44.92;;
71016;Laerm;60940;52.046;5.340;2022-09-27T00:11:39;33.96;30.30;49.58;;
71016;Laerm;60940;52.046;5.340;2022-09-27T00:11:51;33.42;30.29;43.35;;
71016;Laerm;60940;52.046;5.340;2022-09-27T00:12:01;33.60;30.74;47.90;;
71016;Laerm;60940;52.046;5.340;2022-09-27T00:12:12;33.18;30.55;42.63;;
71016;Laerm;60940;52.046;5.340;2022-09-27T00:12:23;36.77;30.55;57.03;;
71016;Laerm;60940;52.046;5.340;2022-09-27T00:12:33;36.19;30.86;54.07;;
71016;Laerm;60940;52.046;5.340;2022-09-27T00:12:44;34.98;30.86;49.30;;
71016;Laerm;60940;52.046;5.340;2022-09-27T00:12:54;33.67;30.75;46.08;;
71016;Laerm;60940;52.046;5.340;2022-09-27T00:13:04;33.61;31.29;41.26;;
71016;Laerm;60940;52.046;5.340;2022-09-27T00:13:15;34.72;31.24;46.34;;
71016;Laerm;60940;52.046;5.340;2022-09-27T00:13:25;34.33;31.22;45.87;;
71016;Laerm;60940;52.046;5.340;2022-09-27T00:13:35;34.56;31.29;46.78;;
71016;Laerm;60940;52.046;5.340;2022-09-27T00:13:45;34.64;31.26;47.67;;
71016;Laerm;60940;52.046;5.340;2022-09-27T00:13:56;35.71;32.27;44.84;;
71016;Laerm;60940;52.046;5.340;2022-09-27T00:14:06;39.10;32.73;48.01;;
71016;Laerm;60940;52.046;5.340;2022-09-27T00:14:17;39.53;34.52;48.88;;
71016;Laerm;60940;52.046;5.340;2022-09-27T00:14:27;40.75;34.33;49.75;;
71016;Laerm;60940;52.046;5.340;2022-09-27T00:14:37;38.64;34.78;51.01;;
71016;Laerm;60940;52.046;5.340;2022-09-27T00:14:48;38.46;33.09;55.14;;
71016;Laerm;60940;52.046;5.340;2022-09-27T00:14:58;36.87;33.29;43.20;;
71016;Laerm;60940;52.046;5.340;2022-09-27T00:15:10;36.68;33.18;41.92;;
71016;Laerm;60940;52.046;5.340;2022-09-27T00:15:20;35.88;32.55;42.75;;
71016;Laerm;60940;52.046;5.340;2022-09-27T00:15:31;35.95;32.83;43.34;;
71016;Laerm;60940;52.046;5.340;2022-09-27T00:15:41;35.48;32.22;45.79;;
71016;Laerm;60940;52.046;5.340;2022-09-27T00:15:54;36.43;32.40;53.00;;
71016;Laerm;60940;52.046;5.340;2022-09-27T00:16:05;34.52;31.92;44.25;;
71016;Laerm;60940;52.046;5.340;2022-09-27T00:16:15;36.11;31.59;50.71;;
71016;Laerm;60940;52.046;5.340;2022-09-27T00:16:26;34.21;31.59;42.50;;
71016;Laerm;60940;52.046;5.340;2022-09-27T00:16:37;34.94;31.46;47.49;;
71016;Laerm;60940;52.046;5.340;2022-09-27T00:16:47;35.94;31.83;54.45;;
71016;Laerm;60940;52.046;5.340;2022-09-27T00:16:58;35.52;31.22;53.63;;
71016;Laerm;60940;52.046;5.340;2022-09-27T00:17:08;33.67;31.17;42.33;;
71016;Laerm;60940;52.046;5.340;2022-09-27T00:17:19;34.72;31.30;50.45;;
71016;Laerm;60940;52.046;5.340;2022-09-27T00:17:29;34.44;31.85;45.56;;
71016;Laerm;60940;52.046;5.340;2022-09-27T00:17:40;34.53;31.19;43.70;;
71016;Laerm;60940;52.046;5.340;2022-09-27T00:17:50;34.56;31.76;47.01;;
71016;Laerm;60940;52.046;5.340;2022-09-27T00:18:01;34.47;31.59;47.53;;
71016;Laerm;60940;52.046;5.340;2022-09-27T00:18:11;34.63;31.28;47.07;;
71016;Laerm;60940;52.046;5.340;2022-09-27T00:18:21;33.33;31.08;41.32;;
71016;Laerm;60940;52.046;5.340;2022-09-27T00:18:32;34.10;31.58;42.81;;
71016;Laerm;60940;52.046;5.340;2022-09-27T00:18:42;34.89;31.37;45.76;;
71016;Laerm;60940;52.046;5.340;2022-09-27T00:18:56;35.50;31.36;54.46;;
71016;Laerm;60940;52.046;5.340;2022-09-27T00:19:08;35.20;31.16;48.74;;
71016;Laerm;60940;52.046;5.340;2022-09-27T00:19:20;34.41;31.09;46.79;;
71016;Laerm;60940;52.046;5.340;2022-09-27T00:19:31;33.93;31.13;43.75;;
71016;Laerm;60940;52.046;5.340;2022-09-27T00:19:41;34.97;30.97;49.61;;
71016;Laerm;60940;52.046;5.340;2022-09-27T00:19:52;33.94;31.10;43.71;;
71016;Laerm;60940;52.046;5.340;2022-09-27T00:20:08;35.01;30.49;54.62;;
71016;Laerm;60940;52.046;5.340;2022-09-27T00:20:19;33.60;30.48;44.58;;
71016;Laerm;60940;52.046;5.340;2022-09-27T00:20:29;34.74;30.72;51.94;;
71016;Laerm;60940;52.046;5.340;2022-09-27T00:20:39;35.70;30.57;52.16;;
71016;Laerm;60940;52.046;5.340;2022-09-27T00:20:50;34.77;30.47;49.14;;
71016;Laerm;60940;52.046;5.340;2022-09-27T00:21:07;33.16;30.82;42.67;;
71016;Laerm;60940;52.046;5.340;2022-09-27T00:21:18;35.64;31.61;50.62;;
71016;Laerm;60940;52.046;5.340;2022-09-27T00:21:28;35.17;32.68;46.37;;
71016;Laerm;60940;52.046;5.340;2022-09-27T00:21:40;36.20;33.49;45.97;;
71016;Laerm;60940;52.046;5.340;2022-09-27T00:21:50;36.20;33.40;46.97;;
71016;Laerm;60940;52.046;5.340;2022-09-27T00:22:00;35.77;33.28;48.57;;
71016;Laerm;60940;52.046;5.340;2022-09-27T00:22:11;38.19;33.98;53.20;;
71016;Laerm;60940;52.046;5.340;2022-09-27T00:22:21;37.11;33.86;52.40;;
71016;Laerm;60940;52.046;5.340;2022-09-27T00:22:33;36.48;33.17;51.10;;
71016;Laerm;60940;52.046;5.340;2022-09-27T00:22:43;36.11;32.56;54.70;;
71016;Laerm;60940;52.046;5.340;2022-09-27T00:22:53;35.10;31.60;46.28;;
71016;Laerm;60940;52.046;5.340;2022-09-27T00:23:03;36.00;31.39;52.36;;
71016;Laerm;60940;52.046;5.340;2022-09-27T00:23:13;33.81;31.37;42.68;;
71016;Laerm;60940;52.046;5.340;2022-09-27T00:23:24;35.13;32.61;45.56;;
71016;Laerm;60940;52.046;5.340;2022-09-27T00:23:34;37.44;33.05;53.35;;
71016;Laerm;60940;52.046;5.340;2022-09-27T00:23:44;38.46;36.05;48.07;;
71016;Laerm;60940;52.046;5.340;2022-09-27T00:23:55;36.83;33.55;48.85;;
71016;Laerm;60940;52.046;5.340;2022-09-27T00:24:05;35.26;31.88;46.00;;
71016;Laerm;60940;52.046;5.340;2022-09-27T00:24:16;34.17;31.44;44.54;;
71016;Laerm;60940;52.046;5.340;2022-09-27T00:24:27;35.83;31.58;48.31;;
71016;Laerm;60940;52.046;5.340;2022-09-27T00:24:37;36.06;31.87;52.67;;
71016;Laerm;60940;52.046;5.340;2022-09-27T00:24:47;35.53;32.44;46.95;;
71016;Laerm;60940;52.046;5.340;2022-09-27T00:24:58;35.02;31.92;43.71;;
71016;Laerm;60940;52.046;5.340;2022-09-27T00:25:08;36.40;32.14;53.81;;
71016;Laerm;60940;52.046;5.340;2022-09-27T00:25:18;37.08;32.73;46.29;;
71016;Laerm;60940;52.046;5.340;2022-09-27T00:25:28;38.15;33.57;47.60;;
71016;Laerm;60940;52.046;5.340;2022-09-27T00:25:39;35.38;32.62;45.26;;
71016;Laerm;60940;52.046;5.340;2022-09-27T00:25:57;35.35;31.22;53.55;;
71016;Laerm;60940;52.046;5.340;2022-09-27T00:26:09;36.35;31.14;54.21;;
71016;Laerm;60940;52.046;5.340;2022-09-27T00:26:20;33.19;30.72;39.44;;
71016;Laerm;60940;52.046;5.340;2022-09-27T00:26:30;34.09;31.09;48.94;;
71016;Laerm;60940;52.046;5.340;2022-09-27T00:26:41;35.02;31.20;48.70;;
71016;Laerm;60940;52.046;5.340;2022-09-27T00:26:51;35.11;31.11;47.45;;
71016;Laerm;60940;52.046;5.340;2022-09-27T00:27:01;32.87;30.77;40.65;;
71016;Laerm;60940;52.046;5.340;2022-09-27T00:27:12;32.78;30.44;39.11;;
71016;Laerm;60940;52.046;5.340;2022-09-27T00:27:22;34.77;32.01;44.68;;
71016;Laerm;60940;52.046;5.340;2022-09-27T00:27:33;37.68;33.32;48.29;;
71016;Laerm;60940;52.046;5.340;2022-09-27T00:27:44;38.73;33.99;53.57;;
71016;Laerm;60940;52.046;5.340;2022-09-27T00:27:54;41.81;35.70;49.47;;
71016;Laerm;60940;52.046;5.340;2022-09-27T00:28:04;43.08;35.04;52.33;;
71016;Laerm;60940;52.046;5.340;2022-09-27T00:28:14;40.62;35.10;49.21;;
71016;Laerm;60940;52.046;5.340;2022-09-27T00:28:25;40.07;34.28;50.33;;
71016;Laerm;60940;52.046;5.340;2022-09-27T00:28:35;38.18;34.69;46.71;;
71016;Laerm;60940;52.046;5.340;2022-09-27T00:28:45;37.02;32.50;47.85;;
71016;Laerm;60940;52.046;5.340;2022-09-27T00:28:56;38.04;33.16;44.13;;
71016;Laerm;60940;52.046;5.340;2022-09-27T00:29:07;36.46;32.17;45.77;;
71016;Laerm;60940;52.046;5.340;2022-09-27T00:29:18;37.62;32.38;49.90;;
71016;Laerm;60940;52.046;5.340;2022-09-27T00:29:29;40.71;32.86;50.10;;
71016;Laerm;60940;52.046;5.340;2022-09-27T00:29:39;37.01;32.44;49.93;;
71016;Laerm;60940;52.046;5.340;2022-09-27T00:29:49;35.74;31.27;51.91;;
71016;Laerm;60940;52.046;5.340;2022-09-27T00:29:59;34.67;31.26;49.12;;
71016;Laerm;60940;52.046;5.340;2022-09-27T00:30:10;32.92;30.30;41.99;;
71016;Laerm;60940;52.046;5.340;2022-09-27T00:30:20;34.55;30.81;50.57;;
71016;Laerm;60940;52.046;5.340;2022-09-27T00:30:30;34.62;30.52;51.33;;
71016;Laerm;60940;52.046;5.340;2022-09-27T00:30:41;32.55;30.34;40.72;;
71016;Laerm;60940;52.046;5.340;2022-09-27T00:30:51;33.15;30.69;45.94;;
71016;Laerm;60940;52.046;5.340;2022-09-27T00:31:03;33.32;30.54;44.14;;
71016;Laerm;60940;52.046;5.340;2022-09-27T00:31:14;35.09;30.89;52.11;;
71016;Laerm;60940;52.046;5.340;2022-09-27T00:31:27;33.54;30.99;43.28;;
71016;Laerm;60940;52.046;5.340;2022-09-27T00:31:40;34.37;31.21;48.27;;
71016;Laerm;60940;52.046;5.340;2022-09-27T00:31:50;33.48;31.49;42.64;;
71016;Laerm;60940;52.046;5.340;2022-09-27T00:32:01;35.75;31.14;54.51;;
71016;Laerm;60940;52.046;5.340;2022-09-27T00:32:11;33.58;30.52;42.46;;
71016;Laerm;60940;52.046;5.340;2022-09-27T00:32:22;33.33;30.45;43.27;;
71016;Laerm;60940;52.046;5.340;2022-09-27T00:32:32;33.38;30.83;40.87;;
71016;Laerm;60940;52.046;5.340;2022-09-27T00:32:42;34.51;30.74;50.93;;
71016;Laerm;60940;52.046;5.340;2022-09-27T00:32:52;33.36;30.76;43.22;;
71016;Laerm;60940;52.046;5.340;2022-09-27T00:33:03;33.17;30.55;43.80;;
71016;Laerm;60940;52.046;5.340;2022-09-27T00:33:13;34.11;30.51;42.27;;
71016;Laerm;60940;52.046;5.340;2022-09-27T00:33:23;33.05;30.38;43.34;;
71016;Laerm;60940;52.046;5.340;2022-09-27T00:33:33;32.87;30.52;42.88;;
71016;Laerm;60940;52.046;5.340;2022-09-27T00:33:43;32.81;30.40;43.01;;
71016;Laerm;60940;52.046;5.340;2022-09-27T00:33:54;34.40;30.77;50.06;;
71016;Laerm;60940;52.046;5.340;2022-09-27T00:34:04;35.02;31.07;46.25;;
71016;Laerm;60940;52.046;5.340;2022-09-27T00:34:17;35.76;31.16;45.30;;
71016;Laerm;60940;52.046;5.340;2022-09-27T00:34:27;34.37;30.77;45.99;;
71016;Laerm;60940;52.046;5.340;2022-09-27T00:34:38;36.94;31.09;49.56;;
71016;Laerm;60940;52.046;5.340;2022-09-27T00:34:48;34.93;30.86;46.73;;
71016;Laerm;60940;52.046;5.340;2022-09-27T00:34:58;32.74;30.43;44.25;;
71016;Laerm;60940;52.046;5.340;2022-09-27T00:35:08;32.91;30.45;45.05;;
71016;Laerm;60940;52.046;5.340;2022-09-27T00:35:19;33.19;30.55;46.63;;
71016;Laerm;60940;52.046;5.340;2022-09-27T00:35:29;33.91;30.81;48.99;;
71016;Laerm;60940;52.046;5.340;2022-09-27T00:35:39;33.79;30.91;48.65;;
71016;Laerm;60940;52.046;5.340;2022-09-27T00:35:49;33.68;30.72;46.49;;
71016;Laerm;60940;52.046;5.340;2022-09-27T00:36:03;33.04;30.60;39.14;;
71016;Laerm;60940;52.046;5.340;2022-09-27T00:36:14;33.14;30.46;43.93;;
71016;Laerm;60940;52.046;5.340;2022-09-27T00:36:25;33.96;31.04;46.54;;
71016;Laerm;60940;52.046;5.340;2022-09-27T00:36:36;33.60;31.36;42.46;;
71016;Laerm;60940;52.046;5.340;2022-09-27T00:36:46;35.63;31.61;45.48;;
71016;Laerm;60940;52.046;5.340;2022-09-27T00:36:57;39.13;32.76;46.09;;
71016;Laerm;60940;52.046;5.340;2022-09-27T00:37:07;42.37;36.50;48.00;;
71016;Laerm;60940;52.046;5.340;2022-09-27T00:37:18;43.65;37.23;50.83;;
71016;Laerm;60940;52.046;5.340;2022-09-27T00:37:28;43.47;36.57;48.89;;
71016;Laerm;60940;52.046;5.340;2022-09-27T00:37:38;41.71;35.73;47.41;;
71016;Laerm;60940;52.046;5.340;2022-09-27T00:37:48;39.97;34.47;46.11;;
71016;Laerm;60940;52.046;5.340;2022-09-27T00:37:59;37.42;33.23;44.35;;
71016;Laerm;60940;52.046;5.340;2022-09-27T00:38:09;35.69;31.77;48.36;;
71016;Laerm;60940;52.046;5.340;2022-09-27T00:38:19;33.70;31.02;41.34;;
71016;Laerm;60940;52.046;5.340;2022-09-27T00:38:30;33.69;31.47;46.35;;
71016;Laerm;60940;52.046;5.340;2022-09-27T00:38:40;33.94;31.00;46.67;;
71016;Laerm;60940;52.046;5.340;2022-09-27T00:38:51;34.02;30.90;48.58;;
71016;Laerm;60940;52.046;5.340;2022-09-27T00:39:02;34.39;31.46;46.11;;
71016;Laerm;60940;52.046;5.340;2022-09-27T00:39:13;33.45;30.86;46.11;;
71016;Laerm;60940;52.046;5.340;2022-09-27T00:39:23;36.06;30.99;54.10;;
71016;Laerm;60940;52.046;5.340;2022-09-27T00:39:33;34.77;30.90;51.47;;
71016;Laerm;60940;52.046;5.340;2022-09-27T00:39:44;33.93;31.03;46.32;;
71016;Laerm;60940;52.046;5.340;2022-09-27T00:39:54;33.58;30.62;42.04;;
71016;Laerm;60940;52.046;5.340;2022-09-27T00:40:04;34.16;30.96;50.73;;
71016;Laerm;60940;52.046;5.340;2022-09-27T00:40:15;33.41;30.20;44.75;;
71016;Laerm;60940;52.046;5.340;2022-09-27T00:40:25;32.83;30.60;41.60;;
71016;Laerm;60940;52.046;5.340;2022-09-27T00:40:35;33.64;30.26;47.86;;
71016;Laerm;60940;52.046;5.340;2022-09-27T00:40:45;33.39;30.09;45.30;;
71016;Laerm;60940;52.046;5.340;2022-09-27T00:40:56;32.93;30.25;40.48;;
71016;Laerm;60940;52.046;5.340;2022-09-27T00:41:08;32.58;30.37;41.15;;
71016;Laerm;60940;52.046;5.340;2022-09-27T00:41:19;34.14;30.36;46.31;;
71016;Laerm;60940;52.046;5.340;2022-09-27T00:41:31;32.87;30.15;44.79;;
71016;Laerm;60940;52.046;5.340;2022-09-27T00:41:42;32.80;29.64;47.43;;
71016;Laerm;60940;52.046;5.340;2022-09-27T00:41:52;33.17;29.86;47.35;;
71016;Laerm;60940;52.046;5.340;2022-09-27T00:42:03;33.07;30.30;44.03;;
71016;Laerm;60940;52.046;5.340;2022-09-27T00:42:13;32.62;30.32;44.89;;
71016;Laerm;60940;52.046;5.340;2022-09-27T00:42:24;34.41;30.20;48.73;;
71016;Laerm;60940;52.046;5.340;2022-09-27T00:42:34;32.98;30.36;43.70;;
71016;Laerm;60940;52.046;5.340;2022-09-27T00:42:45;34.48;30.26;51.01;;
71016;Laerm;60940;52.046;5.340;2022-09-27T00:42:55;34.71;30.57;54.19;;
71016;Laerm;60940;52.046;5.340;2022-09-27T00:43:23;33.12;30.25;44.43;;
71016;Laerm;60940;52.046;5.340;2022-09-27T00:43:44;35.13;30.39;58.71;;
71016;Laerm;60940;52.046;5.340;2022-09-27T00:43:56;33.95;30.67;49.87;;
71016;Laerm;60940;52.046;5.340;2022-09-27T00:44:59;33.21;30.89;42.56;;
71016;Laerm;60940;52.046;5.340;2022-09-27T00:45:11;35.14;30.47;50.74;;
71016;Laerm;60940;52.046;5.340;2022-09-27T00:45:22;32.99;30.59;39.73;;
71016;Laerm;60940;52.046;5.340;2022-09-27T00:45:32;33.77;30.29;49.51;;
71016;Laerm;60940;52.046;5.340;2022-09-27T00:45:43;33.14;30.34;43.15;;
71016;Laerm;60940;52.046;5.340;2022-09-27T00:45:56;33.28;30.14;48.31;;
71016;Laerm;60940;52.046;5.340;2022-09-27T00:46:08;33.00;30.42;45.68;;
71016;Laerm;60940;52.046;5.340;2022-09-27T00:46:45;33.35;29.56;51.63;;
71016;Laerm;60940;52.046;5.340;2022-09-27T00:46:59;33.03;30.41;43.63;;
71016;Laerm;60940;52.046;5.340;2022-09-27T00:47:46;33.94;30.29;52.80;;
71016;Laerm;60940;52.046;5.340;2022-09-27T00:47:59;32.94;30.45;42.90;;
71016;Laerm;60940;52.046;5.340;2022-09-27T00:48:10;34.46;30.54;52.01;;
71016;Laerm;60940;52.046;5.340;2022-09-27T00:48:25;34.74;31.12;47.46;;
71016;Laerm;60940;52.046;5.340;2022-09-27T00:48:37;33.82;30.44;46.75;;
71016;Laerm;60940;52.046;5.340;2022-09-27T00:48:58;34.36;30.73;49.62;;
71016;Laerm;60940;52.046;5.340;2022-09-27T00:49:12;34.26;29.97;49.78;;
71016;Laerm;60940;52.046;5.340;2022-09-27T00:49:49;32.96;30.47;44.91;;
71016;Laerm;60940;52.046;5.340;2022-09-27T00:50:06;33.81;30.20;46.69;;
71016;Laerm;60940;52.046;5.340;2022-09-27T00:50:28;35.83;30.15;57.34;;
71016;Laerm;60940;52.046;5.340;2022-09-27T00:50:41;33.46;30.20;47.35;;
71016;Laerm;60940;52.046;5.340;2022-09-27T00:50:55;33.33;29.66;43.63;;
71016;Laerm;60940;52.046;5.340;2022-09-27T00:51:06;33.61;30.24;45.04;;
71016;Laerm;60940;52.046;5.340;2022-09-27T00:51:18;33.16;30.39;43.69;;
71016;Laerm;60940;52.046;5.340;2022-09-27T00:51:29;34.68;31.08;50.82;;
71016;Laerm;60940;52.046;5.340;2022-09-27T00:51:39;34.84;31.04;46.84;;
71016;Laerm;60940;52.046;5.340;2022-09-27T00:51:53;33.73;31.12;41.75;;
71016;Laerm;60940;52.046;5.340;2022-09-27T00:52:08;33.43;30.59;45.62;;
71016;Laerm;60940;52.046;5.340;2022-09-27T00:52:44;33.08;30.86;41.81;;
71016;Laerm;60940;52.046;5.340;2022-09-27T00:53:11;33.25;30.83;43.74;;
71016;Laerm;60940;52.046;5.340;2022-09-27T00:53:26;34.07;30.51;49.38;;
71016;Laerm;60940;52.046;5.340;2022-09-27T00:53:40;33.99;30.48;51.11;;
71016;Laerm;60940;52.046;5.340;2022-09-27T00:53:52;33.66;30.81;43.77;;
71016;Laerm;60940;52.046;5.340;2022-09-27T00:54:04;33.49;30.94;45.60;;
71016;Laerm;60940;52.046;5.340;2022-09-27T00:54:15;33.19;31.06;40.09;;
71016;Laerm;60940;52.046;5.340;2022-09-27T00:54:26;33.41;30.45;43.80;;
71016;Laerm;60940;52.046;5.340;2022-09-27T00:54:39;33.64;31.00;43.25;;
71016;Laerm;60940;52.046;5.340;2022-09-27T00:54:52;33.23;30.89;42.83;;
71016;Laerm;60940;52.046;5.340;2022-09-27T00:55:06;34.83;30.78;51.67;;
71016;Laerm;60940;52.046;5.340;2022-09-27T00:55:19;33.15;30.61;47.14;;
71016;Laerm;60940;52.046;5.340;2022-09-27T00:55:31;35.35;30.26;53.67;;
71016;Laerm;60940;52.046;5.340;2022-09-27T00:55:45;33.04;30.44;43.17;;
71016;Laerm;60940;52.046;5.340;2022-09-27T00:56:00;34.33;30.62;51.27;;
71016;Laerm;60940;52.046;5.340;2022-09-27T00:56:14;32.94;30.28;44.65;;
71016;Laerm;60940;52.046;5.340;2022-09-27T00:56:26;33.39;30.06;47.76;;
71016;Laerm;60940;52.046;5.340;2022-09-27T00:56:38;33.14;30.11;44.63;;
71016;Laerm;60940;52.046;5.340;2022-09-27T00:56:49;33.82;30.34;49.34;;
71016;Laerm;60940;52.046;5.340;2022-09-27T00:57:00;32.61;30.25;41.83;;
71016;Laerm;60940;52.046;5.340;2022-09-27T00:57:11;32.09;29.80;40.13;;
71016;Laerm;60940;52.046;5.340;2022-09-27T00:57:21;32.27;30.11;39.90;;
71016;Laerm;60940;52.046;5.340;2022-09-27T00:57:32;32.91;29.84;45.85;;
71016;Laerm;60940;52.046;5.340;2022-09-27T00:57:43;34.02;30.05;47.91;;
71016;Laerm;60940;52.046;5.340;2022-09-27T00:57:53;35.38;29.54;53.20;;
71016;Laerm;60940;52.046;5.340;2022-09-27T00:58:04;36.62;30.25;57.43;;
71016;Laerm;60940;52.046;5.340;2022-09-27T00:58:16;33.13;30.04;46.03;;
71016;Laerm;60940;52.046;5.340;2022-09-27T00:58:29;32.85;30.14;47.07;;
71016;Laerm;60940;52.046;5.340;2022-09-27T00:58:41;33.55;30.42;45.48;;
71016;Laerm;60940;52.046;5.340;2022-09-27T00:58:55;33.03;30.43;43.92;;
71016;Laerm;60940;52.046;5.340;2022-09-27T00:59:11;33.53;30.44;45.47;;
71016;Laerm;60940;52.046;5.340;2022-09-27T00:59:27;32.90;30.65;43.55;;
71016;Laerm;60940;52.046;5.340;2022-09-27T00:59:40;33.77;31.09;44.55;;
71016;Laerm;60940;52.046;5.340;2022-09-27T00:59:54;34.87;30.99;49.44;;
71016;Laerm;60940;52.046;5.340;2022-09-27T01:00:09;33.08;30.68;41.29;;
71016;Laerm;60940;52.046;5.340;2022-09-27T01:00:19;33.34;30.70;45.02;;
71016;Laerm;60940;52.046;5.340;2022-09-27T01:00:30;33.42;30.92;44.54;;
71016;Laerm;60940;52.046;5.340;2022-09-27T01:00:41;34.29;30.59;48.00;;
71016;Laerm;60940;52.046;5.340;2022-09-27T01:00:55;33.59;30.04;50.13;;
71016;Laerm;60940;52.046;5.340;2022-09-27T01:01:06;34.12;30.40;50.56;;
71016;Laerm;60940;52.046;5.340;2022-09-27T01:01:19;33.93;30.77;43.28;;
71016;Laerm;60940;52.046;5.340;2022-09-27T01:01:29;34.86;30.97;50.16;;
71016;Laerm;60940;52.046;5.340;2022-09-27T01:01:40;33.89;31.12;44.94;;
71016;Laerm;60940;52.046;5.340;2022-09-27T01:01:50;33.40;30.54;42.59;;
71016;Laerm;60940;52.046;5.340;2022-09-27T01:02:01;33.86;30.72;48.02;;
71016;Laerm;60940;52.046;5.340;2022-09-27T01:02:12;34.93;31.03;49.02;;
71016;Laerm;60940;52.046;5.340;2022-09-27T01:02:22;34.14;30.86;49.91;;
71016;Laerm;60940;52.046;5.340;2022-09-27T01:02:33;34.41;31.17;49.01;;
71016;Laerm;60940;52.046;5.340;2022-09-27T01:02:46;34.21;31.13;47.59;;
71016;Laerm;60940;52.046;5.340;2022-09-27T01:02:57;34.07;31.13;48.31;;
71016;Laerm;60940;52.046;5.340;2022-09-27T01:03:09;33.38;30.81;42.23;;
71016;Laerm;60940;52.046;5.340;2022-09-27T01:03:53;36.00;30.98;54.14;;
71016;Laerm;60940;52.046;5.340;2022-09-27T01:04:06;34.23;31.08;47.38;;
71016;Laerm;60940;52.046;5.340;2022-09-27T01:04:27;36.46;31.47;48.58;;
71016;Laerm;60940;52.046;5.340;2022-09-27T01:04:38;34.19;30.91;45.62;;
71016;Laerm;60940;52.046;5.340;2022-09-27T01:04:49;33.76;31.12;43.78;;
71016;Laerm;60940;52.046;5.340;2022-09-27T01:05:00;33.82;30.57;47.30;;
71016;Laerm;60940;52.046;5.340;2022-09-27T01:05:10;34.42;30.25;51.30;;
71016;Laerm;60940;52.046;5.340;2022-09-27T01:05:22;33.11;30.57;45.82;;
71016;Laerm;60940;52.046;5.340;2022-09-27T01:05:33;34.56;31.18;46.31;;
71016;Laerm;60940;52.046;5.340;2022-09-27T01:05:43;34.68;31.02;46.66;;
71016;Laerm;60940;52.046;5.340;2022-09-27T01:05:54;36.26;32.20;42.56;;
71016;Laerm;60940;52.046;5.340;2022-09-27T01:06:05;36.51;32.29;44.27;;
71016;Laerm;60940;52.046;5.340;2022-09-27T01:06:15;35.90;31.98;43.36;;
71016;Laerm;60940;52.046;5.340;2022-09-27T01:06:28;35.87;31.54;43.68;;
71016;Laerm;60940;52.046;5.340;2022-09-27T01:06:38;34.95;31.55;43.42;;